עמוד ראשי
METAR-TAF:

METAR-TAF

שדות תעופה :

פנמה סיטי, פנמה

קו רוחב: 08-59N, קו אורך: 079-31W, גובה: 13מטר

תצפית מזג אוויר נוכחית

הדו"ח נערך לפני 31דקות, בשעה 05:00 UTC
רוח 3קשר מכיוון צפון
טמפרטורת 28 צלסיוס
לחות 89%
לחץ 1009 hPa

METAR: MPMG 200500Z AUTO 35003KT //// R01///// // FEW068/// 28/26 Q1009

זמן: 00:31 (05:31 UTC)

תחזית

הדו"ח נערך לפני 6 שעות ו 1דקות, בשעה 23:30 UTC
תחזית בתוקף מ 20 ב 00 UTC עד 20 ב 12 UTC
רוח 7קשר מכיוון צפון/צפון-מערב
ראות 10 קילומטר או יותר
עננים פזורים בגובה 1800רגל
עננים פזורים בגובה 9000רגל
הסתברות 30%
20 ב 00 UTC עד 20 ב 02 UTC
ראות: 6000מטר
עננים פזורים בגובה 1600רגל , קומולונימבוס.
עננים פזורים בגובה 9000רגל
סופת רעמים, גשם
זמנית מ -
20 ב 04 UTC עד 20 ב 08 UTC
רוח 2קשר עם כיוונים משתנים

TAF: MPMG 192330Z 2000/2012 33007KT 9999 SCT018 SCT090 PROB30 2000/2002 6000 TSRA SCT016CB SCT090 TEMPO 2004/2008 VRB02KT

תצפיות ותחזיות מזג אוויר לגבי יותר מ- 4,000 שדות תעופה ברחבי העולם. דוחות METAR ו- TAF.

התחנות הזמינות מסומנות בנקודות צהובות ואדומות על גבי המפה.

העבר את העכבר לנקודה הצבעונית על מנת לראות את שם התחנה.

לאחר מכן, לחץ כדי לראות את תוכן ואת תחזיות מזג האוויר.

כדי לשנות את המפה: לחץ על הכפתורים הירוקים עם הפלוס השחור כדי להתקרב; על הכפתור הירוק עם המקף כדי להתרחק; או בחיצים הירוקים למפות סמוכות.


METAR-TAF: